Main page
METAR-TAF:

METAR-TAF

Airports :

Canoas Air Force Base

Porto Alegre, Rio Grande do Sul, Brazil

latitude: 30-01S, longitude: 051-13W, elevation: 47 m

Current weather observation

The report was made 26 minutes ago, at 03:00 UTC
Wind 6 kt from the East
Temperature 22°C
Humidity 88%
Pressure 1014 hPa
Visibility 10 km or more
no clouds below 1500 m and no cumulonimbus

METAR: SBCO 180300Z 10006KT CAVOK 22/20 Q1014

Time: 00:26 (03:26 UTC)

Forecast

The report was made 5 hours and 26 minutes ago, at 22:00 UTC
Forecast valid from 18 at 00 UTC to 18 at 12 UTC
Wind 11 kt from the Southeast
Visibility 10 km or more
Few clouds at a height of 3000 ft
Becoming
from 18 at 03 UTC to 18 at 05 UTC
Wind 6 kt from the East/Southeast
Scattered clouds at a height of 3500 ft
Becoming
from 18 at 10 UTC to 18 at 12 UTC
Wind 4 kt from the East
Few clouds at a height of 3500 ft

TAF: SBCO 172200Z 1800/1812 13011KT 9999 FEW030 TN20/1808Z TX24/1812Z BECMG 1803/1805 11006KT SCT035 BECMG 1810/1812 09004KT FEW035 RMK PCX

Weather observations and forecasts of more than 4000 airports (METAR and TAF reports).

The available stations are represented by yellow and red dots on the map.

Hover mouse over dot to see the name of the station.

Then click to see weather observations and forecasts.

To change the map : click on the green buttons with a black cross to zoom in, on the green button with a dash to zoom out, or on the green arrows for adjacent maps.


METAR-TAF: